Time;durP1;ratioP1;P1;durP2;ratioP2;P2;SDS_P1;SDS_P2;PMS_P1;PMS_P2;Temp;Humidity;BMP_temperature;BMP_pressure;BME280_temperature;BME280_humidity;BME280_pressure;Samples;Min_cycle;Max_cycle;Signal;HPM_P1;HPM_P2
2021/03/09 00:01:55;;;;;;;176.95;60.05;;;3.60;99.90;;;;;;5053300;28;20037;-67
2021/03/09 00:04:20;;;;;;;195.25;63.38;;;3.60;99.90;;;;;;5053050;28;20017;-66
2021/03/09 00:06:46;;;;;;;192.23;63.10;;;3.60;99.90;;;;;;5053546;28;20584;-66
2021/03/09 00:09:11;;;;;;;181.48;61.38;;;3.60;99.90;;;;;;5053476;28;20021;-66
2021/03/09 00:11:37;;;;;;;175.93;60.10;;;3.70;99.90;;;;;;5053235;28;20025;-66
2021/03/09 00:14:02;;;;;;;170.43;59.97;;;3.70;99.90;;;;;;5053203;28;20064;-66
2021/03/09 00:16:28;;;;;;;159.07;55.65;;;3.70;99.90;;;;;;5053432;28;20114;-66
2021/03/09 00:18:54;;;;;;;163.95;57.50;;;3.70;99.90;;;;;;5053430;28;20037;-66
2021/03/09 00:21:19;;;;;;;154.65;56.40;;;3.70;99.90;;;;;;5052877;28;20040;-66
2021/03/09 00:23:45;;;;;;;150.27;53.45;;;3.70;99.90;;;;;;5053100;28;20029;-66
2021/03/09 00:26:10;;;;;;;146.18;54.90;;;3.70;99.90;;;;;;5051320;28;20029;-66
2021/03/09 00:28:36;;;;;;;157.52;54.42;;;3.70;99.90;;;;;;5053066;28;20037;-66
2021/03/09 00:31:01;;;;;;;152.48;53.67;;;3.70;99.90;;;;;;5052319;28;20063;-66
2021/03/09 00:33:27;;;;;;;151.85;56.15;;;3.70;99.90;;;;;;5051880;28;20029;-66
2021/03/09 00:35:52;;;;;;;158.48;55.28;;;3.70;99.90;;;;;;5056714;28;20021;-67
2021/03/09 00:38:18;;;;;;;160.43;55.42;;;3.60;99.90;;;;;;5057186;28;20039;-66
2021/03/09 00:40:43;;;;;;;151.63;55.15;;;3.60;99.90;;;;;;5056849;28;20049;-66
2021/03/09 00:43:09;;;;;;;162.57;54.15;;;3.60;99.90;;;;;;5056828;28;20492;-67
2021/03/09 00:45:34;;;;;;;153.30;54.40;;;3.60;99.90;;;;;;5056492;28;20428;-66
2021/03/09 00:48:00;;;;;;;154.65;54.55;;;3.60;99.90;;;;;;5056612;28;20029;-66
2021/03/09 00:50:26;;;;;;;158.57;55.25;;;3.60;99.90;;;;;;5038586;28;20024;-66
2021/03/09 00:52:51;;;;;;;147.80;53.67;;;3.60;99.90;;;;;;5056626;28;20037;-66
2021/03/09 00:55:17;;;;;;;160.68;54.42;;;3.70;99.90;;;;;;5056017;28;20096;-66
2021/03/09 00:57:42;;;;;;;141.23;53.17;;;3.70;99.90;;;;;;5056253;28;20029;-66
2021/03/09 01:00:09;;;;;;;152.35;53.20;;;3.70;99.90;;;;;;5055580;28;20032;-66
2021/03/09 01:02:34;;;;;;;146.55;53.17;;;3.70;99.90;;;;;;5056419;28;20032;-67
2021/03/09 01:05:24;;;;;;;156.25;53.83;;;3.70;99.90;;;;;;5054982;28;20029;-66
2021/03/09 01:08:16;;;;;;;143.45;51.60;;;3.70;99.90;;;;;;5056043;28;20028;-66
2021/03/09 01:10:42;;;;;;;154.85;53.83;;;3.70;99.90;;;;;;5056081;28;20032;-66
2021/03/09 01:13:07;;;;;;;146.43;51.60;;;3.70;99.90;;;;;;5056215;28;20020;-66
2021/03/09 01:15:33;;;;;;;147.90;54.35;;;3.70;99.90;;;;;;5054378;28;20075;-66
2021/03/09 01:17:59;;;;;;;149.25;54.25;;;3.70;99.90;;;;;;5055588;28;20036;-66
2021/03/09 01:20:33;;;;;;;154.80;53.95;;;3.70;99.90;;;;;;5056099;28;20033;-66
2021/03/09 01:22:59;;;;;;;151.25;53.03;;;3.70;99.90;;;;;;5062499;22;20128;-79
2021/03/09 01:25:25;;;;;;;145.90;53.60;;;3.70;99.90;;;;;;5038162;28;20049;-78
2021/03/09 01:27:50;;;;;;;157.25;53.03;;;3.70;99.90;;;;;;5037418;28;20036;-79
2021/03/09 01:30:18;;;;;;;147.40;55.15;;;3.70;99.90;;;;;;5037565;28;20021;-78
2021/03/09 01:32:43;;;;;;;147.73;52.00;;;3.70;99.90;;;;;;5037693;28;20119;-79
2021/03/09 01:35:10;;;;;;;148.93;52.15;;;3.70;99.90;;;;;;5037946;28;20466;-79
2021/03/09 01:37:35;;;;;;;149.00;53.28;;;3.70;99.90;;;;;;5037576;28;20025;-79
2021/03/09 01:40:01;;;;;;;143.30;50.65;;;3.70;99.90;;;;;;5038373;28;20362;-79
2021/03/09 01:42:27;;;;;;;136.75;50.95;;;3.70;99.90;;;;;;5037472;28;20032;-79
2021/03/09 01:44:52;;;;;;;141.07;52.13;;;3.70;99.90;;;;;;5037996;28;20032;-79
2021/03/09 01:47:19;;;;;;;144.57;50.83;;;3.80;99.90;;;;;;5037055;28;20120;-79
2021/03/09 01:49:45;;;;;;;139.02;49.92;;;3.70;99.90;;;;;;5037142;28;20029;-79
2021/03/09 01:52:11;;;;;;;143.57;51.63;;;3.70;99.90;;;;;;5037571;28;20017;-79
2021/03/09 01:54:38;;;;;;;136.98;51.78;;;3.80;99.90;;;;;;5037249;28;20021;-79
2021/03/09 01:57:06;;;;;;;137.50;50.85;;;3.80;99.90;;;;;;5037226;28;20121;-79
2021/03/09 01:59:32;;;;;;;135.52;50.35;;;3.80;99.90;;;;;;5037502;28;20021;-79
2021/03/09 02:01:58;;;;;;;141.38;49.65;;;3.90;99.90;;;;;;5036927;28;20120;-78
2021/03/09 02:04:24;;;;;;;139.23;50.30;;;3.80;99.90;;;;;;5036911;28;20478;-79
2021/03/09 02:06:50;;;;;;;146.52;51.58;;;3.90;99.90;;;;;;5036741;28;20463;-79
2021/03/09 02:09:17;;;;;;;151.13;51.83;;;3.90;99.90;;;;;;5036846;28;20068;-79
2021/03/09 02:11:50;;;;;;;132.23;49.10;;;3.90;99.90;;;;;;5036755;28;20025;-79
2021/03/09 02:14:33;;;;;;;150.40;50.90;;;4.00;99.90;;;;;;5037256;28;20017;-79
2021/03/09 02:17:11;;;;;;;147.65;52.65;;;4.00;99.90;;;;;;5036824;28;20119;-79
2021/03/09 02:20:16;;;;;;;151.20;52.60;;;4.00;99.90;;;;;;5054027;28;20092;-79
2021/03/09 02:23:22;;;;;;;144.00;51.33;;;4.10;99.90;;;;;;5052759;28;20072;-79
2021/03/09 02:26:27;;;;;;;147.02;50.97;;;4.10;99.90;;;;;;5052922;28;20032;-80
2021/03/09 02:32:13;;;;;;;150.00;50.35;;;4.10;99.90;;;;;;5111457;27;20404;-71
2021/03/09 02:34:45;;;;;;;149.27;50.92;;;4.10;99.90;;;;;;5110536;28;20023;-71
2021/03/09 02:37:40;;;;;;;148.55;52.83;;;4.00;99.90;;;;;;5110812;28;20103;-71
2021/03/09 02:40:10;;;;;;;140.38;50.92;;;4.00;99.90;;;;;;5127271;28;20027;-70
2021/03/09 02:42:44;;;;;;;158.98;52.83;;;4.10;99.90;;;;;;5111878;28;20027;-70
2021/03/09 02:45:14;;;;;;;140.38;49.50;;;4.00;99.90;;;;;;5111517;28;20028;-70
2021/03/09 02:47:47;;;;;;;138.15;49.53;;;4.00;99.90;;;;;;5111727;28;20028;-70
2021/03/09 02:50:14;;;;;;;107.03;40.22;;;4.00;99.90;;;;;;5111322;28;20055;-70
2021/03/09 02:52:42;;;;;;;140.43;50.58;;;4.10;99.90;;;;;;5111341;28;20081;-70
2021/03/09 02:55:11;;;;;;;134.95;50.78;;;4.00;99.90;;;;;;5110425;28;20034;-70
2021/03/09 02:57:39;;;;;;;140.07;50.72;;;4.10;99.90;;;;;;5111552;28;20026;-70
2021/03/09 03:00:07;;;;;;;145.05;50.72;;;4.10;99.90;;;;;;5111496;28;20024;-70
2021/03/09 03:02:35;;;;;;;136.32;49.13;;;4.00;99.90;;;;;;5111457;28;20023;-70
2021/03/09 03:05:01;;;;;;;140.77;49.55;;;4.00;99.90;;;;;;5111435;28;20452;-70
2021/03/09 03:07:28;;;;;;;139.35;51.10;;;4.00;99.90;;;;;;5109845;28;20024;-71
2021/03/09 03:09:54;;;;;;;143.05;51.47;;;4.00;99.90;;;;;;5109498;28;20040;-71
2021/03/09 03:12:20;;;;;;;149.70;51.92;;;4.00;99.90;;;;;;5110972;28;20099;-71
2021/03/09 03:14:47;;;;;;;143.23;51.70;;;4.00;99.90;;;;;;5111299;28;20027;-71
2021/03/09 03:17:14;;;;;;;136.35;48.67;;;4.00;99.90;;;;;;5111193;28;20456;-70
2021/03/09 03:19:41;;;;;;;140.95;49.20;;;4.00;99.90;;;;;;5111166;28;20027;-70
2021/03/09 03:22:09;;;;;;;145.75;50.03;;;4.00;99.90;;;;;;5110160;28;20024;-70
2021/03/09 03:24:35;;;;;;;151.02;51.17;;;4.00;99.90;;;;;;5110769;28;20020;-71
2021/03/09 03:27:01;;;;;;;131.73;49.13;;;4.00;99.90;;;;;;5109552;28;20380;-70
2021/03/09 03:29:27;;;;;;;142.23;51.35;;;4.00;99.90;;;;;;5110943;28;20596;-70
2021/03/09 03:31:54;;;;;;;137.50;49.65;;;4.00;99.90;;;;;;5110168;28;20126;-70
2021/03/09 03:34:20;;;;;;;137.85;50.28;;;4.10;99.90;;;;;;5108990;28;20434;-71
2021/03/09 03:36:45;;;;;;;149.77;51.72;;;4.00;99.90;;;;;;5110555;28;20024;-70
2021/03/09 03:39:12;;;;;;;146.60;50.63;;;4.00;99.90;;;;;;5110753;28;20020;-70
2021/03/09 03:41:38;;;;;;;155.63;50.80;;;4.00;99.90;;;;;;5107398;28;20063;-70
2021/03/09 03:44:04;;;;;;;142.32;51.20;;;4.00;99.90;;;;;;5096848;28;20462;-70
2021/03/09 03:46:30;;;;;;;155.80;54.20;;;4.00;99.90;;;;;;5095242;28;20028;-70
2021/03/09 03:48:55;;;;;;;161.45;55.50;;;4.00;99.90;;;;;;5096450;28;20073;-70
2021/03/09 03:51:29;;;;;;;163.85;57.90;;;4.00;99.90;;;;;;5095332;28;20460;-70
2021/03/09 03:54:25;;;;;;;152.13;54.13;;;3.90;99.90;;;;;;5096907;28;20364;-70
2021/03/09 03:57:00;;;;;;;169.32;57.55;;;3.90;99.90;;;;;;5096324;28;20353;-70
2021/03/09 03:59:30;;;;;;;167.50;56.42;;;4.00;99.90;;;;;;5096820;28;20024;-70
2021/03/09 04:01:59;;;;;;;168.88;58.55;;;3.80;99.90;;;;;;5096735;28;20020;-71
2021/03/09 04:04:27;;;;;;;164.32;57.28;;;3.80;99.90;;;;;;5095724;28;20034;-71
2021/03/09 04:06:54;;;;;;;169.02;59.08;;;3.90;99.90;;;;;;5096659;28;20020;-71
2021/03/09 04:09:20;;;;;;;166.13;61.55;;;3.90;99.90;;;;;;5095432;28;20440;-71
2021/03/09 04:11:48;;;;;;;167.30;57.97;;;3.90;99.90;;;;;;5096482;28;20031;-71
2021/03/09 04:14:15;;;;;;;170.40;56.53;;;3.90;99.90;;;;;;5095273;28;20125;-69
2021/03/09 04:16:44;;;;;;;175.15;59.90;;;3.90;99.90;;;;;;5096452;28;20020;-69
2021/03/09 04:19:12;;;;;;;168.50;57.28;;;3.80;99.90;;;;;;5096365;28;20052;-69
2021/03/09 04:21:38;;;;;;;180.10;62.13;;;3.90;99.90;;;;;;5096365;28;20055;-69
2021/03/09 04:24:05;;;;;;;176.85;61.40;;;3.90;99.90;;;;;;5095717;28;20510;-71
2021/03/09 04:26:31;;;;;;;165.95;60.53;;;3.90;99.90;;;;;;5096289;28;20024;-71
2021/03/09 04:28:57;;;;;;;173.50;61.40;;;3.90;99.90;;;;;;5095902;28;20020;-70
2021/03/09 04:31:24;;;;;;;183.93;63.65;;;3.90;99.90;;;;;;5095548;28;20104;-71
2021/03/09 04:33:51;;;;;;;168.07;59.50;;;3.80;99.90;;;;;;5095864;28;20035;-71
2021/03/09 04:36:18;;;;;;;168.80;60.53;;;3.90;99.90;;;;;;5094606;28;20023;-71
2021/03/09 04:38:46;;;;;;;176.15;62.55;;;3.90;99.90;;;;;;5096034;28;20077;-71
2021/03/09 04:41:11;;;;;;;162.88;59.25;;;3.90;99.90;;;;;;5094160;28;20081;-71
2021/03/09 04:43:38;;;;;;;163.63;59.85;;;3.80;99.90;;;;;;5094420;28;20032;-71
2021/03/09 04:46:04;;;;;;;167.70;58.45;;;3.90;99.90;;;;;;5094161;28;20024;-71
2021/03/09 04:48:30;;;;;;;180.50;64.53;;;3.80;99.90;;;;;;5094868;28;20078;-71
2021/03/09 04:51:07;;;;;;;171.25;60.22;;;3.80;99.90;;;;;;5095701;28;20051;-71
2021/03/09 04:53:33;;;;;;;169.57;59.58;;;3.80;99.90;;;;;;5092990;28;20020;-71
2021/03/09 04:55:59;;;;;;;169.77;60.70;;;3.80;99.90;;;;;;5095689;28;20376;-71
2021/03/09 04:58:26;;;;;;;174.32;63.03;;;3.80;99.90;;;;;;5095660;28;20029;-71
2021/03/09 05:00:53;;;;;;;165.57;62.03;;;3.80;99.90;;;;;;5094148;28;20063;-71
2021/03/09 05:03:19;;;;;;;170.38;62.50;;;3.80;99.90;;;;;;5095301;28;20016;-71
2021/03/09 05:05:45;;;;;;;163.57;59.65;;;3.80;99.90;;;;;;5095249;28;20377;-71
2021/03/09 05:08:11;;;;;;;174.23;61.78;;;3.80;99.90;;;;;;5095511;28;20039;-71
2021/03/09 05:10:36;;;;;;;162.65;61.55;;;3.80;99.90;;;;;;5095102;28;20052;-71
2021/03/09 05:13:03;;;;;;;171.52;62.95;;;3.80;99.90;;;;;;5093542;28;20073;-71
2021/03/09 05:15:29;;;;;;;168.90;62.70;;;3.80;99.90;;;;;;5095054;28;20103;-71
2021/03/09 05:17:54;;;;;;;173.77;64.75;;;3.70;99.90;;;;;;5095015;28;20109;-71
2021/03/09 05:20:20;;;;;;;164.15;60.67;;;3.80;99.90;;;;;;5093630;28;20024;-71
2021/03/09 05:22:45;;;;;;;169.18;63.75;;;3.80;99.90;;;;;;5095179;28;20031;-71
2021/03/09 05:25:14;;;;;;;180.45;66.18;;;3.80;99.90;;;;;;5093661;28;20089;-71
2021/03/09 05:27:40;;;;;;;171.05;63.65;;;3.80;99.90;;;;;;5093944;28;20016;-71
2021/03/09 05:30:07;;;;;;;169.50;62.35;;;3.70;99.90;;;;;;5094626;28;20377;-70
2021/03/09 05:32:33;;;;;;;168.88;63.33;;;3.80;99.90;;;;;;5093863;28;20031;-70
2021/03/09 05:34:59;;;;;;;171.63;63.70;;;3.70;99.90;;;;;;5093151;28;20024;-70
2021/03/09 05:37:24;;;;;;;176.88;65.50;;;3.70;99.90;;;;;;5093470;28;20031;-70
2021/03/09 05:39:50;;;;;;;178.20;65.85;;;3.70;99.90;;;;;;5093046;28;20031;-70
2021/03/09 05:42:16;;;;;;;164.65;63.95;;;3.70;99.90;;;;;;5094552;28;20020;-70
2021/03/09 05:44:42;;;;;;;176.18;65.72;;;3.70;99.90;;;;;;5094249;28;20061;-70
2021/03/09 05:47:08;;;;;;;180.32;66.13;;;3.70;99.90;;;;;;5094690;28;20059;-71
2021/03/09 05:49:34;;;;;;;171.95;61.72;;;3.70;99.90;;;;;;5094706;28;20043;-70
2021/03/09 05:52:00;;;;;;;159.75;61.65;;;3.70;99.90;;;;;;5094581;28;20121;-70
2021/03/09 05:54:27;;;;;;;164.77;62.75;;;3.70;99.90;;;;;;5094602;28;20073;-70
2021/03/09 05:56:52;;;;;;;159.93;60.90;;;3.70;99.90;;;;;;5094582;28;20019;-70
2021/03/09 05:59:18;;;;;;;172.10;65.15;;;3.70;99.90;;;;;;5094577;28;20028;-70
2021/03/09 06:01:44;;;;;;;170.57;64.85;;;3.70;99.90;;;;;;5094449;28;20043;-71
2021/03/09 06:04:10;;;;;;;184.07;63.83;;;3.70;99.90;;;;;;5093890;28;20107;-71
2021/03/09 06:06:36;;;;;;;170.43;64.25;;;3.60;99.90;;;;;;5094236;28;20095;-71
2021/03/09 06:09:22;;;;;;;161.00;63.22;;;3.70;99.90;;;;;;5094383;28;20448;-71
2021/03/09 06:12:22;;;;;;;181.70;67.32;;;3.70;99.90;;;;;;5093660;28;20107;-70
2021/03/09 06:17:37;;;;;;;172.32;64.68;;;3.60;99.90;;;;;;5112224;27;20347;-71
2021/03/09 06:20:04;;;;;;;175.80;66.88;;;3.60;99.90;;;;;;5111431;28;20077;-71
2021/03/09 06:22:42;;;;;;;166.40;62.65;;;3.60;99.90;;;;;;5111661;28;20027;-70
2021/03/09 06:25:11;;;;;;;175.85;64.93;;;3.60;99.90;;;;;;5111840;28;20047;-70
2021/03/09 06:27:37;;;;;;;173.88;65.70;;;3.60;99.90;;;;;;5111472;28;20468;-71
2021/03/09 06:30:07;;;;;;;172.80;65.97;;;3.60;99.90;;;;;;5111754;28;20469;-71
2021/03/09 06:32:41;;;;;;;171.18;65.85;;;3.60;99.90;;;;;;5111209;28;20028;-70
2021/03/09 06:35:24;;;;;;;159.15;65.00;;;3.60;99.90;;;;;;5111264;28;20368;-71
2021/03/09 06:37:49;;;;;;;161.68;61.50;;;3.60;99.90;;;;;;5111621;28;20093;-70
2021/03/09 06:40:15;;;;;;;168.55;64.65;;;3.60;99.90;;;;;;5111476;28;20407;-71
2021/03/09 06:42:44;;;;;;;174.18;67.55;;;3.60;99.90;;;;;;5110002;28;20023;-70
2021/03/09 06:45:12;;;;;;;166.95;64.68;;;3.60;99.90;;;;;;5111141;28;20020;-71
2021/03/09 06:47:47;;;;;;;169.80;63.55;;;3.70;99.90;;;;;;5111349;28;20146;-70
2021/03/09 06:50:17;;;;;;;157.05;66.75;;;3.70;99.90;;;;;;5111210;28;20027;-70
2021/03/09 06:52:45;;;;;;;156.30;60.00;;;3.70;99.90;;;;;;5111020;28;20402;-70
2021/03/09 06:55:14;;;;;;;168.48;65.50;;;3.60;99.90;;;;;;5109902;28;20154;-71
2021/03/09 06:58:00;;;;;;;173.20;66.57;;;3.60;99.90;;;;;;5110634;28;20028;-70
2021/03/09 07:00:29;;;;;;;159.73;63.75;;;3.70;99.90;;;;;;5110479;28;20048;-70
2021/03/09 07:02:54;;;;;;;167.13;67.50;;;3.70;99.90;;;;;;5110773;28;20525;-70
2021/03/09 07:05:20;;;;;;;159.23;59.55;;;3.70;99.90;;;;;;5110965;28;20031;-71
2021/03/09 07:07:45;;;;;;;153.52;59.55;;;3.70;99.90;;;;;;5110917;28;20028;-70
2021/03/09 07:10:15;;;;;;;162.48;63.63;;;3.70;99.90;;;;;;5109425;28;20024;-70
2021/03/09 07:12:42;;;;;;;161.70;63.15;;;3.70;99.90;;;;;;5109036;28;20074;-71
2021/03/09 07:15:11;;;;;;;139.40;58.25;;;3.70;99.90;;;;;;5091896;28;20028;-71
2021/03/09 07:17:38;;;;;;;137.93;59.00;;;3.70;99.90;;;;;;5110619;28;20028;-70
2021/03/09 07:20:06;;;;;;;140.77;55.42;;;3.70;99.90;;;;;;5110198;28;20072;-70
2021/03/09 07:22:34;;;;;;;136.48;56.47;;;3.70;99.90;;;;;;5109416;28;20020;-70
2021/03/09 07:25:14;;;;;;;139.73;56.25;;;3.70;99.90;;;;;;5110151;28;20524;-70
2021/03/09 07:28:04;;;;;;;145.57;57.75;;;3.70;99.90;;;;;;5092353;28;20020;-71
2021/03/09 07:30:34;;;;;;;137.30;56.53;;;3.70;99.90;;;;;;5094240;28;20028;-71
2021/03/09 07:32:59;;;;;;;137.43;58.50;;;3.70;99.90;;;;;;5096713;28;20118;-70
2021/03/09 07:35:28;;;;;;;153.63;62.05;;;3.70;99.90;;;;;;5095886;28;20104;-71
2021/03/09 07:37:54;;;;;;;155.93;62.33;;;3.70;99.90;;;;;;5096608;28;20464;-71
2021/03/09 07:40:32;;;;;;;146.43;58.75;;;3.70;99.90;;;;;;5095834;28;20016;-70
2021/03/09 07:42:58;;;;;;;143.27;57.42;;;3.70;99.90;;;;;;5095006;28;20418;-70
2021/03/09 07:45:26;;;;;;;139.40;55.08;;;3.60;99.90;;;;;;5094673;28;20040;-70
2021/03/09 07:47:56;;;;;;;133.15;56.72;;;3.60;99.90;;;;;;5096227;28;20090;-71
2021/03/09 07:50:23;;;;;;;149.55;60.70;;;3.60;99.90;;;;;;5094617;28;20024;-71
2021/03/09 07:53:09;;;;;;;140.77;55.97;;;3.60;99.90;;;;;;5096033;28;20016;-70
2021/03/09 07:55:38;;;;;;;132.02;54.00;;;3.70;99.90;;;;;;5095317;28;20380;-71
2021/03/09 07:58:24;;;;;;;140.57;56.10;;;3.70;99.90;;;;;;5095553;28;20016;-71
2021/03/09 08:00:59;;;;;;;126.18;54.50;;;3.70;99.90;;;;;;5094985;28;20016;-70
2021/03/09 08:03:37;;;;;;;127.95;52.80;;;3.80;99.90;;;;;;5075471;28;20017;-70
2021/03/09 08:06:10;;;;;;;120.80;48.40;;;3.70;99.90;;;;;;5076921;28;20107;-71
2021/03/09 08:16:44;;;;;;;119.38;62.38;;;3.80;99.90;;;;;;5109587;27;20467;-70
2021/03/09 08:21:54;;;;;;;115.47;46.40;;;3.80;99.90;;;;;;5111639;27;20359;-70
2021/03/09 08:27:35;;;;;;;111.50;57.40;;;3.90;99.90;;;;;;5109887;27;20397;-70
2021/03/09 08:30:33;;;;;;;101.47;46.63;;;3.90;99.90;;;;;;5111046;28;20020;-70
2021/03/09 08:33:22;;;;;;;94.53;40.63;;;3.90;99.90;;;;;;5111079;28;20024;-71
2021/03/09 08:35:48;;;;;;;95.30;42.47;;;4.00;99.90;;;;;;5109296;28;20392;-70
2021/03/09 08:38:15;;;;;;;97.25;41.28;;;3.90;99.90;;;;;;5110444;28;20030;-70
2021/03/09 08:41:02;;;;;;;91.57;39.78;;;3.90;99.90;;;;;;5111262;28;20038;-70
2021/03/09 08:43:28;;;;;;;86.65;38.70;;;4.00;99.90;;;;;;5110722;28;20676;-71
2021/03/09 08:48:49;;;;;;;86.45;39.50;;;3.90;99.90;;;;;;5089801;27;20146;-70
2021/03/09 08:51:49;;;;;;;98.50;41.90;;;3.90;99.90;;;;;;5091388;28;20053;-70
2021/03/09 08:54:17;;;;;;;88.53;40.70;;;3.90;99.90;;;;;;5089887;28;20024;-70
2021/03/09 08:56:42;;;;;;;97.50;42.92;;;3.90;99.90;;;;;;5089033;28;20472;-67
2021/03/09 08:59:08;;;;;;;94.22;41.17;;;3.90;99.90;;;;;;5091056;28;20028;-70
2021/03/09 09:01:34;;;;;;;100.07;42.60;;;3.90;99.90;;;;;;5090815;28;20098;-71
2021/03/09 09:03:59;;;;;;;95.03;43.67;;;4.00;99.90;;;;;;5091200;28;20028;-71
2021/03/09 09:06:27;;;;;;;97.72;44.20;;;4.00;99.90;;;;;;5089663;28;20028;-74
2021/03/09 09:08:52;;;;;;;96.10;42.92;;;4.00;99.90;;;;;;5090066;28;20024;-70
2021/03/09 09:11:25;;;;;;;91.38;42.25;;;4.00;99.90;;;;;;5088560;28;20377;-69
2021/03/09 09:13:50;;;;;;;91.07;41.30;;;4.00;99.90;;;;;;5090649;28;20384;-69
2021/03/09 09:16:17;;;;;;;84.38;40.13;;;4.10;99.90;;;;;;5089257;28;20020;-67
2021/03/09 09:18:43;;;;;;;92.03;41.50;;;4.00;99.90;;;;;;5089629;28;20407;-67
2021/03/09 09:21:10;;;;;;;83.95;40.17;;;4.00;99.90;;;;;;5089182;28;20035;-67
2021/03/09 09:23:36;;;;;;;95.03;41.13;;;4.00;99.90;;;;;;5088953;28;20390;-67
2021/03/09 09:26:02;;;;;;;89.43;40.45;;;4.10;99.90;;;;;;5089262;28;20098;-67
2021/03/09 09:28:34;;;;;;;96.13;44.28;;;4.10;99.90;;;;;;5087526;28;20483;-67
2021/03/09 09:31:05;;;;;;;85.70;40.42;;;4.10;99.90;;;;;;5089463;28;20077;-67
2021/03/09 09:33:32;;;;;;;93.55;40.60;;;4.20;99.90;;;;;;5089413;28;20016;-67
2021/03/09 09:35:58;;;;;;;98.88;43.42;;;4.10;99.90;;;;;;5089833;28;20484;-67
2021/03/09 09:38:23;;;;;;;93.95;43.40;;;4.20;99.90;;;;;;5080353;28;20040;-67
2021/03/09 09:40:54;;;;;;;96.05;43.03;;;4.20;99.90;;;;;;5088957;28;20120;-67
2021/03/09 09:43:22;;;;;;;87.88;41.90;;;4.40;99.90;;;;;;5080054;28;20404;-67
2021/03/09 09:45:52;;;;;;;92.68;40.38;;;4.40;99.90;;;;;;5088962;28;20029;-67
2021/03/09 09:48:21;;;;;;;89.43;40.47;;;4.50;99.90;;;;;;5107759;28;20044;-67
2021/03/09 09:50:51;;;;;;;88.00;40.53;;;4.40;99.90;;;;;;5110630;28;20115;-67
2021/03/09 09:53:38;;;;;;;91.10;44.45;;;4.50;99.90;;;;;;5092059;28;20430;-66
2021/03/09 09:56:07;;;;;;;92.25;42.83;;;4.50;99.90;;;;;;5110175;28;20020;-67
2021/03/09 09:58:52;;;;;;;82.95;40.40;;;4.60;99.90;;;;;;5103653;28;20028;-67
2021/03/09 10:04:13;;;;;;;83.55;42.60;;;4.60;99.90;;;;;;5070157;28;20862;-68
2021/03/09 10:06:42;;;;;;;92.22;43.78;;;4.60;99.90;;;;;;5067886;28;20103;-68
2021/03/09 10:09:25;;;;;;;87.82;42.80;;;4.60;99.90;;;;;;5070755;28;20019;-67
2021/03/09 10:11:56;;;;;;;93.78;44.40;;;4.60;99.90;;;;;;5069904;28;20025;-68
2021/03/09 10:14:25;;;;;;;91.97;42.25;;;4.60;99.90;;;;;;5070815;28;20021;-67
2021/03/09 10:16:51;;;;;;;93.75;44.08;;;4.50;99.90;;;;;;5070220;28;20024;-67
2021/03/09 10:19:20;;;;;;;90.18;42.55;;;4.60;99.90;;;;;;5070460;28;20025;-67
2021/03/09 10:21:48;;;;;;;92.47;43.97;;;4.60;99.90;;;;;;5069797;28;20079;-66
2021/03/09 10:24:31;;;;;;;96.65;46.70;;;4.60;99.90;;;;;;5067903;28;20028;-66
2021/03/09 10:26:59;;;;;;;92.30;43.95;;;4.60;99.90;;;;;;5069536;28;20039;-66
2021/03/09 10:29:27;;;;;;;92.60;44.35;;;4.60;99.90;;;;;;5069428;28;20029;-66
2021/03/09 10:31:58;;;;;;;99.22;47.28;;;4.60;99.90;;;;;;5069770;28;20414;-67
2021/03/09 10:34:47;;;;;;;87.78;43.25;;;4.50;99.90;;;;;;5069299;28;20035;-66
2021/03/09 10:37:15;;;;;;;94.30;44.60;;;4.40;99.90;;;;;;5069562;28;20055;-66
2021/03/09 10:39:58;;;;;;;99.32;46.20;;;4.50;99.90;;;;;;5070160;28;20032;-66
2021/03/09 10:42:26;;;;;;;91.20;45.80;;;4.50;99.90;;;;;;5069845;28;20040;-66
2021/03/09 10:44:52;;;;;;;92.20;44.65;;;4.50;99.90;;;;;;5068616;28;20022;-66
2021/03/09 10:47:18;;;;;;;95.22;46.40;;;4.50;99.90;;;;;;5069315;28;20155;-65
2021/03/09 10:49:43;;;;;;;97.03;47.35;;;4.50;99.90;;;;;;5069765;28;20029;-66
2021/03/09 10:52:09;;;;;;;92.95;45.17;;;4.50;99.90;;;;;;5069340;28;20037;-67
2021/03/09 10:54:39;;;;;;;83.70;42.05;;;4.60;99.90;;;;;;5069582;28;20086;-65
2021/03/09 10:57:09;;;;;;;81.47;40.15;;;4.60;99.90;;;;;;5068355;28;20021;-67
2021/03/09 10:59:37;;;;;;;81.53;38.83;;;4.60;99.90;;;;;;5067191;28;20114;-66
2021/03/09 11:02:06;;;;;;;81.50;41.85;;;4.60;99.90;;;;;;5068383;28;20091;-67
2021/03/09 11:04:32;;;;;;;76.40;39.13;;;4.60;99.90;;;;;;5067252;28;20059;-67
2021/03/09 11:07:00;;;;;;;79.95;38.28;;;4.50;99.90;;;;;;5068517;28;20021;-66
2021/03/09 11:09:25;;;;;;;79.78;36.72;;;4.60;99.90;;;;;;5068005;28;20049;-66
2021/03/09 11:11:51;;;;;;;72.55;35.28;;;4.60;99.90;;;;;;5068914;28;20056;-66
2021/03/09 11:14:17;;;;;;;74.13;37.70;;;4.50;99.90;;;;;;5062842;28;20043;-66
2021/03/09 11:16:42;;;;;;;82.50;37.80;;;4.50;99.90;;;;;;5054900;28;20103;-68
2021/03/09 11:19:08;;;;;;;78.70;37.05;;;4.50;99.90;;;;;;5054801;28;20112;-66
2021/03/09 11:21:33;;;;;;;76.60;37.95;;;4.50;99.90;;;;;;5054983;28;20074;-66
2021/03/09 11:23:59;;;;;;;75.30;37.25;;;4.60;99.90;;;;;;5055070;28;20024;-66
2021/03/09 11:26:26;;;;;;;77.15;36.53;;;4.50;99.90;;;;;;5054426;28;20476;-67
2021/03/09 11:28:53;;;;;;;74.07;38.08;;;4.60;99.90;;;;;;5055128;28;20021;-66
2021/03/09 11:31:20;;;;;;;80.78;39.10;;;4.60;99.90;;;;;;5055151;28;20025;-65
2021/03/09 11:33:46;;;;;;;83.70;39.67;;;4.60;99.90;;;;;;5055501;28;20021;-67
2021/03/09 11:36:12;;;;;;;83.07;40.13;;;4.60;99.90;;;;;;5054839;28;20532;-67
2021/03/09 11:38:41;;;;;;;76.13;38.33;;;4.60;99.90;;;;;;5052746;28;20033;-66
2021/03/09 11:41:07;;;;;;;83.03;39.85;;;4.70;99.90;;;;;;5054321;28;20036;-67
2021/03/09 11:43:32;;;;;;;85.18;42.25;;;4.70;99.90;;;;;;5055231;28;20025;-66
2021/03/09 11:45:58;;;;;;;90.97;42.90;;;4.70;99.90;;;;;;5053871;28;20094;-67
2021/03/09 11:48:24;;;;;;;75.53;38.97;;;4.80;99.90;;;;;;5054865;28;20023;-68
2021/03/09 11:50:51;;;;;;;89.72;42.22;;;4.80;99.90;;;;;;5054671;28;20021;-67
2021/03/09 11:53:16;;;;;;;88.25;43.92;;;4.80;99.90;;;;;;5054416;28;20040;-68
2021/03/09 11:55:42;;;;;;;90.75;43.88;;;4.90;99.90;;;;;;5054629;28;20037;-68
2021/03/09 11:58:08;;;;;;;89.95;42.28;;;5.00;99.90;;;;;;5054768;28;20037;-68
2021/03/09 12:00:33;;;;;;;83.85;40.33;;;5.00;99.90;;;;;;5054119;28;20070;-67
2021/03/09 12:02:59;;;;;;;82.20;42.60;;;5.00;99.90;;;;;;5054664;28;20041;-68
2021/03/09 12:05:25;;;;;;;88.32;44.03;;;5.00;99.90;;;;;;5053263;28;20047;-68
2021/03/09 12:07:50;;;;;;;87.38;41.53;;;5.00;99.90;;;;;;5054830;28;20071;-68
2021/03/09 12:10:16;;;;;;;84.90;42.75;;;5.00;99.90;;;;;;5054519;28;20025;-68
2021/03/09 12:12:42;;;;;;;88.25;43.78;;;5.00;99.90;;;;;;5054518;28;20056;-67
2021/03/09 12:15:08;;;;;;;89.13;43.45;;;5.00;99.90;;;;;;5053988;28;20044;-67
2021/03/09 12:17:33;;;;;;;97.82;46.67;;;5.00;99.90;;;;;;5053106;28;20055;-67
2021/03/09 12:19:59;;;;;;;98.50;46.38;;;5.00;99.90;;;;;;5054449;28;20068;-66
2021/03/09 12:22:24;;;;;;;101.85;48.03;;;5.00;99.90;;;;;;5054621;28;20059;-68
2021/03/09 12:24:50;;;;;;;102.90;46.10;;;5.10;99.90;;;;;;5054429;28;20025;-66
2021/03/09 12:27:15;;;;;;;94.63;45.15;;;5.20;99.90;;;;;;5052043;28;20029;-66
2021/03/09 12:29:41;;;;;;;99.03;44.75;;;5.20;99.90;;;;;;5054030;28;20029;-67
2021/03/09 12:32:07;;;;;;;100.53;44.42;;;5.30;99.90;;;;;;5054142;28;20029;-67
2021/03/09 12:34:32;;;;;;;89.50;40.55;;;5.30;99.90;;;;;;5052480;28;20025;-67
2021/03/09 12:36:58;;;;;;;95.28;45.85;;;5.30;99.90;;;;;;5054351;28;20029;-67
2021/03/09 12:39:24;;;;;;;105.70;47.22;;;5.30;99.90;;;;;;5054138;28;20033;-67
2021/03/09 12:41:49;;;;;;;106.88;47.28;;;5.30;99.90;;;;;;5052258;28;20021;-66
2021/03/09 12:44:15;;;;;;;112.05;48.55;;;5.40;99.90;;;;;;5052011;28;20338;-68
2021/03/09 12:46:40;;;;;;;104.38;47.38;;;5.40;99.90;;;;;;5052821;28;20092;-67
2021/03/09 12:49:06;;;;;;;114.30;49.97;;;5.50;99.90;;;;;;5052694;28;20756;-67
2021/03/09 12:51:32;;;;;;;114.28;49.10;;;5.40;99.90;;;;;;5052213;28;20123;-67
2021/03/09 12:53:58;;;;;;;120.22;48.70;;;5.50;99.90;;;;;;5053204;28;20033;-67
2021/03/09 12:56:23;;;;;;;109.40;48.78;;;5.50;99.90;;;;;;5052970;28;20024;-67
2021/03/09 12:58:49;;;;;;;118.03;48.47;;;5.60;99.90;;;;;;5053612;28;20033;-67
2021/03/09 13:01:14;;;;;;;112.93;50.50;;;5.60;99.90;;;;;;5054186;28;20466;-67
2021/03/09 13:03:40;;;;;;;110.40;49.05;;;5.60;99.90;;;;;;5053142;28;20052;-67
2021/03/09 13:06:05;;;;;;;115.10;48.50;;;5.60;99.90;;;;;;5053883;28;20070;-67